Time;durP1;ratioP1;P1;durP2;ratioP2;P2;SDS_P1;SDS_P2;PMS_P1;PMS_P2;Temp;Humidity;BMP_temperature;BMP_pressure;BME280_temperature;BME280_humidity;BME280_pressure;Samples;Min_cycle;Max_cycle;Signal;HPM_P1;HPM_P2
2021/07/25 00:01:41;;;;;;;26.43;23.93;;;18.50;1.00;19.50;99900.00;;;;5014156;28;20473;-74
2021/07/25 00:04:09;;;;;;;26.27;23.70;;;18.60;1.00;19.50;99900.00;;;;5005331;28;20438;-74
2021/07/25 00:06:38;;;;;;;28.87;26.20;;;18.60;1.00;19.50;99913.00;;;;5006472;28;20514;-73
2021/07/25 00:09:06;;;;;;;26.60;24.30;;;18.50;1.00;19.50;99898.00;;;;5007624;28;20454;-72
2021/07/25 00:11:34;;;;;;;26.70;24.20;;;18.50;1.00;19.60;99894.00;;;;5013965;28;20457;-75
2021/07/25 00:14:04;;;;;;;27.47;24.73;;;18.60;1.00;19.70;99896.00;;;;5018680;28;20925;-73
2021/07/25 00:16:33;;;;;;;26.83;24.23;;;18.70;1.00;19.80;99881.00;;;;5029379;28;20498;-74
2021/07/25 00:19:02;;;;;;;27.13;24.60;;;18.80;1.00;19.80;99898.00;;;;5014230;28;20585;-71
2021/07/25 00:21:30;;;;;;;26.60;24.00;;;18.80;1.00;19.80;99883.00;;;;5005890;28;21315;-72
2021/07/25 00:23:59;;;;;;;26.03;23.43;;;18.80;1.00;19.90;99895.00;;;;5005430;28;20482;-72
2021/07/25 00:26:33;;;;;;;26.17;23.77;;;18.80;1.00;19.90;99890.00;;;;5010655;28;20463;-75
2021/07/25 00:29:02;;;;;;;24.40;22.23;;;18.90;1.00;19.90;99882.00;;;;5022800;28;20462;-72
2021/07/25 00:31:33;;;;;;;24.70;22.40;;;18.80;1.00;19.90;99871.00;;;;5004776;28;20540;-73
2021/07/25 00:34:03;;;;;;;26.03;23.47;;;18.90;1.00;19.90;99844.00;;;;5005022;28;20900;-74
2021/07/25 00:36:32;;;;;;;26.00;23.30;;;18.90;1.00;19.90;99872.00;;;;4995160;28;20473;-76
2021/07/25 00:39:01;;;;;;;26.13;23.53;;;19.00;1.00;19.90;99884.00;;;;5003965;28;20446;-75
2021/07/25 00:41:29;;;;;;;23.87;21.77;;;19.00;1.00;19.90;99876.00;;;;5002058;28;20481;-73
2021/07/25 00:43:58;;;;;;;23.93;21.70;;;19.00;1.00;19.90;99878.00;;;;5000820;28;20891;-72
2021/07/25 00:46:27;;;;;;;22.73;20.50;;;19.00;1.00;19.90;99887.00;;;;5005642;28;20563;-72
2021/07/25 00:49:00;;;;;;;22.90;20.50;;;19.00;1.00;19.90;99875.00;;;;5005649;28;20515;-74
2021/07/25 00:51:28;;;;;;;23.00;20.60;;;19.10;1.00;20.00;99892.00;;;;5005272;28;20446;-72
2021/07/25 00:53:57;;;;;;;22.20;20.00;;;19.20;1.00;20.10;99865.00;;;;5005211;28;20458;-73
2021/07/25 00:56:26;;;;;;;21.43;19.53;;;19.30;1.00;20.20;99889.00;;;;5001593;28;20458;-72
2021/07/25 00:58:54;;;;;;;23.20;21.20;;;19.30;1.00;20.10;99888.00;;;;5003777;28;20466;-75
2021/07/25 01:01:23;;;;;;;22.80;20.70;;;19.40;1.00;20.20;99900.00;;;;4998366;28;20573;-75
2021/07/25 01:04:06;;;;;;;25.93;23.53;;;19.40;1.00;20.30;99898.00;;;;5002134;28;20524;-74
2021/07/25 01:06:49;;;;;;;27.67;25.20;;;19.40;1.00;20.20;99891.00;;;;5003022;28;20976;-74
2021/07/25 01:09:28;;;;;;;33.80;30.70;;;19.40;1.00;20.20;99843.00;;;;5004425;28;20944;-73
2021/07/25 01:12:00;;;;;;;30.40;27.60;;;19.40;1.00;20.10;99858.00;;;;5007386;28;20485;-74
2021/07/25 01:14:32;;;;;;;29.10;26.00;;;19.30;1.00;20.10;99894.00;;;;5015723;28;20446;-73
2021/07/25 01:17:32;;;;;;;25.20;22.80;;;19.30;1.00;20.10;99892.00;;;;5018819;28;20509;-75
2021/07/25 01:20:03;;;;;;;25.20;22.90;;;19.30;1.00;20.00;99840.00;;;;5053734;28;20906;-73
2021/07/25 01:22:35;;;;;;;26.23;23.93;;;19.30;1.00;20.10;99875.00;;;;5019131;28;20481;-73
2021/07/25 01:25:06;;;;;;;23.37;20.97;;;19.30;1.00;20.10;99863.00;;;;5003786;28;20447;-73
2021/07/25 01:27:41;;;;;;;22.60;20.40;;;19.30;1.00;20.00;99878.00;;;;5004879;28;21444;-73
2021/07/25 01:30:14;;;;;;;19.87;17.93;;;19.20;1.00;19.90;99876.00;;;;5002619;28;20861;-73
2021/07/25 01:32:44;;;;;;;19.20;17.20;;;19.10;1.00;19.90;99858.00;;;;5000151;28;20485;-73
2021/07/25 01:35:15;;;;;;;19.97;17.97;;;19.10;1.00;19.90;99860.00;;;;5001090;28;20538;-73
2021/07/25 01:37:44;;;;;;;18.23;16.53;;;19.10;1.00;19.80;99861.00;;;;5003941;28;20462;-73
2021/07/25 01:40:18;;;;;;;17.47;15.87;;;19.10;1.00;19.80;99862.00;;;;5010312;28;20560;-72
2021/07/25 01:42:48;;;;;;;15.97;14.47;;;19.10;1.00;19.70;99863.00;;;;5005067;28;20479;-76
2021/07/25 01:45:16;;;;;;;17.03;15.33;;;19.00;1.00;19.60;99841.00;;;;5000208;28;20636;-74
2021/07/25 01:47:45;;;;;;;16.67;15.17;;;18.90;1.00;19.50;99867.00;;;;4995427;28;20560;-74
2021/07/25 01:50:16;;;;;;;16.83;15.07;;;18.80;1.00;19.50;99877.00;;;;5002362;28;21012;-74
2021/07/25 01:52:45;;;;;;;15.93;14.53;;;18.80;1.00;19.50;99867.00;;;;5012532;28;20511;-73
2021/07/25 01:55:14;;;;;;;16.70;15.20;;;18.80;1.00;19.50;99865.00;;;;5000956;28;20450;-72
2021/07/25 01:57:44;;;;;;;17.33;15.73;;;18.90;1.00;19.60;99863.00;;;;5013113;28;21046;-73
2021/07/25 02:00:13;;;;;;;17.80;15.90;;;18.80;1.00;19.50;99826.00;;;;5006410;28;20540;-73
2021/07/25 02:02:41;;;;;;;16.37;14.97;;;18.70;1.00;19.50;99848.00;;;;5016432;28;20480;-74
2021/07/25 02:05:11;;;;;;;19.00;16.00;;;18.70;1.00;19.50;99832.00;;;;5010272;28;20486;-73
2021/07/25 02:07:40;;;;;;;18.80;16.90;;;18.70;1.00;19.50;99856.00;;;;5026103;28;20446;-75
2021/07/25 02:10:10;;;;;;;18.33;16.43;;;18.70;1.00;19.50;99845.00;;;;5012914;28;20827;-72
2021/07/25 02:12:39;;;;;;;17.70;16.10;;;18.70;1.00;19.40;99849.00;;;;5003898;28;20465;-73
2021/07/25 02:15:09;;;;;;;19.40;17.53;;;18.80;1.00;19.50;99804.00;;;;5006452;28;20449;-74
2021/07/25 02:17:37;;;;;;;17.97;16.10;;;18.80;1.00;19.40;99796.00;;;;4997902;28;20841;-73
2021/07/25 02:20:08;;;;;;;17.80;16.17;;;18.60;1.00;19.30;99849.00;;;;5017363;28;20556;-73
2021/07/25 02:22:36;;;;;;;17.03;15.43;;;18.60;1.00;19.20;99862.00;;;;5002554;28;20474;-74
2021/07/25 02:25:12;;;;;;;18.03;16.43;;;18.40;1.00;19.10;99870.00;;;;5003000;28;20454;-73
2021/07/25 02:27:40;;;;;;;18.57;16.90;;;18.30;1.00;19.10;99862.00;;;;4993011;28;20489;-72
2021/07/25 02:30:10;;;;;;;18.30;16.60;;;18.20;1.00;19.00;99854.00;;;;5002789;28;20478;-73
2021/07/25 02:32:39;;;;;;;18.83;17.03;;;18.20;1.00;19.00;99846.00;;;;5001377;28;20449;-73
2021/07/25 02:35:08;;;;;;;18.00;16.20;;;18.20;1.00;19.00;99827.00;;;;5002347;28;20943;-73
2021/07/25 02:37:36;;;;;;;19.73;17.83;;;18.20;1.00;19.00;99840.00;;;;4999197;28;20802;-75
2021/07/25 02:40:11;;;;;;;19.50;17.67;;;18.20;1.00;19.00;99797.00;;;;5000079;28;20479;-73
2021/07/25 02:42:39;;;;;;;25.17;22.60;;;18.20;1.00;19.10;99850.00;;;;5004001;28;20500;-72
2021/07/25 02:45:09;;;;;;;23.73;21.17;;;18.30;1.00;19.10;99843.00;;;;4998732;28;20465;-76
2021/07/25 02:47:37;;;;;;;22.70;20.50;;;18.30;1.00;19.10;99830.00;;;;5001647;28;20465;-74
2021/07/25 02:50:07;;;;;;;21.30;19.20;;;18.30;1.00;19.10;99852.00;;;;5002523;28;20496;-72
2021/07/25 02:52:36;;;;;;;23.53;21.03;;;18.30;1.00;19.10;99840.00;;;;4999219;28;20578;-74
2021/07/25 02:55:08;;;;;;;21.43;19.43;;;18.30;1.00;19.10;99844.00;;;;5000472;28;20621;-72
2021/07/25 02:57:36;;;;;;;23.13;20.83;;;18.30;1.00;19.00;99820.00;;;;5001771;28;20488;-72
2021/07/25 03:00:07;;;;;;;23.20;21.00;;;18.30;1.00;19.00;99855.00;;;;5001016;28;20473;-73
2021/07/25 03:02:36;;;;;;;23.37;21.17;;;18.30;1.00;19.00;99855.00;;;;5000192;28;20504;-73
2021/07/25 03:05:07;;;;;;;25.57;23.10;;;18.30;1.00;18.90;99840.00;;;;5000970;28;20449;-71
2021/07/25 03:07:36;;;;;;;29.03;26.13;;;18.30;1.00;18.90;99802.00;;;;4998961;28;20487;-73
2021/07/25 03:10:08;;;;;;;27.27;24.43;;;18.30;1.00;18.80;99860.00;;;;5007057;28;20470;-71
2021/07/25 03:12:36;;;;;;;27.20;23.83;;;18.20;1.00;18.80;99872.00;;;;5001374;28;20446;-72
2021/07/25 03:15:08;;;;;;;26.27;23.70;;;18.20;1.00;18.80;99865.00;;;;4999241;28;20452;-74
2021/07/25 03:17:36;;;;;;;28.57;25.50;;;18.20;1.00;18.70;99859.00;;;;4998513;28;20496;-72
2021/07/25 03:20:06;;;;;;;29.37;26.47;;;18.10;1.00;18.70;99861.00;;;;5000830;28;20604;-76
2021/07/25 03:22:35;;;;;;;27.87;25.17;;;18.10;1.00;18.70;99868.00;;;;5002915;28;20465;-72
2021/07/25 03:25:07;;;;;;;27.10;24.50;;;18.10;1.00;18.70;99853.00;;;;5001297;28;20992;-73
2021/07/25 03:27:35;;;;;;;26.73;24.23;;;18.00;1.00;18.60;99871.00;;;;5005639;28;21037;-74
2021/07/25 03:30:06;;;;;;;27.60;25.17;;;18.00;1.00;18.60;99834.00;;;;5004389;28;20477;-71
2021/07/25 03:32:34;;;;;;;27.77;25.20;;;17.90;1.00;18.50;99870.00;;;;5000710;28;20466;-73
2021/07/25 03:35:03;;;;;;;29.00;26.10;;;17.90;1.00;18.50;99862.00;;;;5003839;28;20453;-73
2021/07/25 03:37:32;;;;;;;27.83;24.90;;;17.80;1.00;18.50;99844.00;;;;5004777;28;20523;-72
2021/07/25 03:40:01;;;;;;;28.27;25.47;;;17.80;1.00;18.50;99882.00;;;;5000755;28;20509;-73
2021/07/25 03:42:30;;;;;;;27.23;24.67;;;17.80;1.00;18.50;99839.00;;;;5002682;28;20481;-72
2021/07/25 03:44:59;;;;;;;24.70;22.30;;;17.90;1.00;18.50;99861.00;;;;5004562;28;20462;-72
2021/07/25 03:47:27;;;;;;;23.63;21.33;;;17.90;1.00;18.60;99890.00;;;;5003015;28;20460;-71
2021/07/25 03:49:55;;;;;;;24.67;22.17;;;18.00;1.00;18.70;99864.00;;;;5002447;28;20986;-72
2021/07/25 03:52:24;;;;;;;22.20;20.30;;;18.10;1.00;18.80;99887.00;;;;5003391;28;20528;-76
2021/07/25 03:54:53;;;;;;;23.63;21.33;;;18.20;1.00;18.90;99835.00;;;;5010561;28;20469;-72
2021/07/25 03:57:21;;;;;;;22.40;20.17;;;18.30;1.00;19.00;99836.00;;;;5023259;28;20468;-75
2021/07/25 03:59:51;;;;;;;24.87;22.43;;;18.40;1.00;19.10;99878.00;;;;5019605;28;20525;-75
2021/07/25 04:02:19;;;;;;;22.67;20.57;;;18.50;1.00;19.10;99871.00;;;;5020952;28;20450;-75
2021/07/25 04:04:48;;;;;;;24.03;21.73;;;18.50;1.00;19.20;99881.00;;;;5006604;28;20520;-72
2021/07/25 04:07:17;;;;;;;22.97;20.80;;;18.60;1.00;19.30;99879.00;;;;5006670;28;20457;-73
2021/07/25 04:09:45;;;;;;;22.03;19.93;;;18.70;1.00;19.40;99890.00;;;;5001098;28;20480;-73
2021/07/25 04:12:13;;;;;;;24.20;21.50;;;18.70;1.00;19.40;99889.00;;;;5006435;28;20446;-72
2021/07/25 04:14:42;;;;;;;22.27;20.10;;;18.80;1.00;19.40;99867.00;;;;5004006;28;20450;-72
2021/07/25 04:17:11;;;;;;;22.10;19.93;;;18.80;1.00;19.40;99890.00;;;;5002779;28;20462;-73
2021/07/25 04:19:40;;;;;;;23.67;21.40;;;18.80;1.00;19.40;99884.00;;;;5004936;28;20538;-72
2021/07/25 04:22:08;;;;;;;22.53;20.30;;;18.80;1.00;19.60;99884.00;;;;5015264;28;20462;-76
2021/07/25 04:24:36;;;;;;;23.57;21.20;;;18.90;1.00;19.40;99872.00;;;;5006094;28;20681;-74
2021/07/25 04:27:06;;;;;;;22.77;20.27;;;18.90;1.00;19.70;99891.00;;;;5004594;28;20943;-75
2021/07/25 04:29:35;;;;;;;22.33;20.23;;;19.00;1.00;19.70;99881.00;;;;5010944;28;20488;-73
2021/07/25 04:32:05;;;;;;;21.60;19.40;;;19.00;1.00;19.70;99866.00;;;;5008927;28;21401;-74
2021/07/25 04:34:35;;;;;;;21.20;19.20;;;19.00;1.00;19.70;99900.00;;;;5015332;28;21008;-73
2021/07/25 04:37:10;;;;;;;22.10;19.97;;;19.00;1.00;19.70;99892.00;;;;5014480;28;20873;-73
2021/07/25 04:39:39;;;;;;;22.70;20.40;;;19.00;1.00;19.70;99888.00;;;;5007549;28;20973;-74
2021/07/25 04:42:08;;;;;;;22.07;19.77;;;19.00;1.00;19.70;99887.00;;;;5008161;28;20544;-76
2021/07/25 04:44:50;;;;;;;21.20;18.97;;;18.90;1.00;19.70;99887.00;;;;5004326;28;20493;-74
2021/07/25 04:47:23;;;;;;;22.87;20.57;;;18.90;1.00;19.70;99881.00;;;;5004623;28;20446;-74
2021/07/25 04:50:01;;;;;;;20.43;18.33;;;18.90;1.00;19.80;99903.00;;;;5006557;28;21029;-74
2021/07/25 04:52:40;;;;;;;21.27;18.57;;;18.90;1.00;19.90;99889.00;;;;5001107;28;20473;-74
2021/07/25 04:55:12;;;;;;;21.13;18.77;;;18.90;1.00;19.90;99900.00;;;;5001810;28;20560;-73
2021/07/25 04:57:43;;;;;;;23.50;21.23;;;19.00;1.00;19.90;99888.00;;;;4999822;28;20587;-77
2021/07/25 05:00:15;;;;;;;22.87;20.50;;;19.10;1.00;19.90;99890.00;;;;5002385;28;20565;-77
2021/07/25 05:02:45;;;;;;;23.53;20.50;;;19.10;1.00;20.00;99905.00;;;;5009538;28;20611;-75
2021/07/25 05:05:16;;;;;;;23.70;21.30;;;19.10;1.00;20.00;99897.00;;;;5002490;28;21565;-74
2021/07/25 05:07:46;;;;;;;27.03;24.10;;;19.10;1.00;19.90;99904.00;;;;4993449;28;20541;-76
2021/07/25 05:10:16;;;;;;;28.70;25.07;;;19.10;1.00;19.90;99901.00;;;;5004417;28;20572;-76
2021/07/25 05:12:55;;;;;;;27.90;24.90;;;19.00;1.00;19.90;99868.00;;;;5002836;28;20505;-75
2021/07/25 05:15:32;;;;;;;27.57;24.73;;;19.00;1.00;19.90;99888.00;;;;5000614;28;21039;-74
2021/07/25 05:18:07;;;;;;;29.80;26.70;;;18.90;1.00;19.90;99887.00;;;;5002369;28;20467;-74
2021/07/25 05:20:44;;;;;;;31.43;28.00;;;18.90;1.00;19.90;99908.00;;;;5001381;28;20571;-73
2021/07/25 05:23:22;;;;;;;33.57;28.10;;;18.90;1.00;19.90;99875.00;;;;5003428;28;20485;-76
2021/07/25 05:25:54;;;;;;;30.33;27.30;;;18.90;1.00;19.90;99912.00;;;;5002617;28;20457;-74
2021/07/25 05:28:23;;;;;;;33.63;29.70;;;18.90;1.00;19.90;99919.00;;;;5000531;28;20464;-77
2021/07/25 05:30:54;;;;;;;36.47;31.27;;;19.00;1.00;20.00;99876.00;;;;5002732;28;20577;-74
2021/07/25 05:33:24;;;;;;;34.77;31.00;;;19.10;1.00;20.20;99913.00;;;;5000917;28;20462;-74
2021/07/25 05:35:56;;;;;;;35.07;30.23;;;19.20;1.00;20.40;99900.00;;;;5003062;28;20970;-73
2021/07/25 05:38:24;;;;;;;36.07;29.70;;;19.50;1.00;20.50;99910.00;;;;5006816;28;21165;-74
2021/07/25 05:40:53;;;;;;;32.23;28.73;;;19.70;1.00;20.60;99909.00;;;;5002138;28;20470;-74
2021/07/25 05:43:21;;;;;;;29.30;26.20;;;19.80;1.00;20.70;99906.00;;;;5000285;28;20910;-75
2021/07/25 05:45:50;;;;;;;31.50;28.10;;;19.80;1.00;20.70;99925.00;;;;5003821;28;20458;-74
2021/07/25 05:48:18;;;;;;;31.57;28.27;;;19.80;1.00;20.80;99888.00;;;;5010237;28;20464;-74
2021/07/25 05:50:46;;;;;;;29.87;26.73;;;19.90;1.00;21.00;99912.00;;;;5017386;28;20486;-78
2021/07/25 05:53:16;;;;;;;29.17;24.77;;;20.00;1.00;20.90;99908.00;;;;5023391;28;20449;-74
2021/07/25 05:55:45;;;;;;;27.13;24.23;;;20.00;1.00;21.10;99907.00;;;;5017870;28;20462;-75
2021/07/25 05:58:19;;;;;;;27.53;24.80;;;20.10;1.00;21.20;99906.00;;;;5003769;28;20554;-74
2021/07/25 06:00:47;;;;;;;32.30;28.20;;;20.20;1.00;21.20;99895.00;;;;5000420;28;20480;-75
2021/07/25 06:03:16;;;;;;;29.70;26.27;;;20.20;1.00;21.00;99926.00;;;;5001639;28;20450;-77
2021/07/25 06:05:44;;;;;;;26.33;23.63;;;20.10;1.00;20.80;99941.00;;;;5017958;28;20476;-74
2021/07/25 06:08:12;;;;;;;29.13;24.30;;;19.90;1.00;20.80;99936.00;;;;5002583;28;20902;-77
2021/07/25 06:10:44;;;;;;;26.27;23.57;;;19.80;1.00;20.70;99894.00;;;;5000016;28;20806;-74
2021/07/25 06:13:12;;;;;;;26.27;23.67;;;19.80;1.00;20.80;99920.00;;;;5001287;28;20452;-75
2021/07/25 06:15:41;;;;;;;24.80;22.20;;;19.80;1.00;21.00;99933.00;;;;5002121;28;20488;-75
2021/07/25 06:18:09;;;;;;;24.00;21.50;;;20.00;1.00;21.20;99936.00;;;;4998609;28;20468;-75
2021/07/25 06:20:38;;;;;;;23.60;21.20;;;20.20;1.00;21.60;99934.00;;;;4999568;28;20564;-74
2021/07/25 06:23:06;;;;;;;21.80;19.50;;;20.50;1.00;21.70;99931.00;;;;5001102;28;20549;-76
2021/07/25 06:25:35;;;;;;;21.80;19.63;;;20.60;1.00;21.80;99911.00;;;;4999858;28;20477;-75
2021/07/25 06:28:06;;;;;;;24.70;20.50;;;20.70;1.00;21.70;99950.00;;;;4991500;28;20454;-75
2021/07/25 06:30:35;;;;;;;20.10;18.20;;;20.60;1.00;21.60;99942.00;;;;5000564;28;20532;-75
2021/07/25 06:33:06;;;;;;;20.13;18.07;;;20.50;1.00;21.60;99954.00;;;;5000340;28;20462;-75
2021/07/25 06:35:36;;;;;;;18.73;16.93;;;20.50;1.00;21.50;99928.00;;;;5007389;28;20480;-75
2021/07/25 06:38:07;;;;;;;17.83;15.30;;;20.30;1.00;21.50;99959.00;;;;5003948;28;20549;-75
2021/07/25 06:40:37;;;;;;;14.87;13.47;;;20.40;1.00;21.50;99950.00;;;;5000119;28;20469;-74
2021/07/25 06:43:07;;;;;;;13.30;12.10;;;20.50;1.00;21.40;99959.00;;;;4999342;28;20462;-76
2021/07/25 06:45:36;;;;;;;13.33;11.93;;;20.30;1.00;21.50;99956.00;;;;5008638;28;20515;-73
2021/07/25 06:48:05;;;;;;;13.17;11.90;;;20.30;1.00;21.70;99935.00;;;;4999460;28;20450;-75
2021/07/25 06:50:34;;;;;;;15.33;13.77;;;20.60;1.00;21.90;99947.00;;;;4997333;28;20486;-74
2021/07/25 06:53:02;;;;;;;15.43;13.83;;;20.80;1.00;22.20;99922.00;;;;5000043;28;20469;-74
2021/07/25 06:55:31;;;;;;;17.20;15.50;;;21.00;1.00;22.40;99948.00;;;;4999202;28;20616;-75
2021/07/25 06:57:59;;;;;;;15.93;14.50;;;21.30;1.00;22.60;99949.00;;;;4999935;28;20549;-76
2021/07/25 07:00:29;;;;;;;15.80;14.20;;;21.40;1.00;22.80;99928.00;;;;4997909;28;20483;-75
2021/07/25 07:02:58;;;;;;;15.60;14.00;;;21.60;1.00;22.80;99953.00;;;;5001666;28;20450;-75
2021/07/25 07:05:29;;;;;;;16.43;14.83;;;21.60;1.00;22.80;99935.00;;;;5003106;28;20485;-74
2021/07/25 07:08:00;;;;;;;17.70;15.90;;;21.60;1.00;22.80;99924.00;;;;4998607;28;20457;-75
2021/07/25 07:10:30;;;;;;;17.50;15.17;;;21.50;1.00;23.00;99948.00;;;;4999197;28;20497;-75
2021/07/25 07:13:02;;;;;;;20.00;17.37;;;21.70;1.00;23.00;99956.00;;;;4994077;28;20572;-76
2021/07/25 07:15:32;;;;;;;18.47;16.57;;;21.80;1.00;22.90;99951.00;;;;4997717;28;20903;-76
2021/07/25 07:18:01;;;;;;;20.07;17.60;;;21.70;1.00;22.90;99947.00;;;;5005101;28;20446;-76
2021/07/25 07:20:30;;;;;;;17.33;15.63;;;21.60;1.00;22.90;99952.00;;;;4995234;28;20517;-75
2021/07/25 07:23:00;;;;;;;15.83;14.27;;;21.50;1.00;23.00;99961.00;;;;4998428;28;20548;-76
2021/07/25 07:25:32;;;;;;;15.47;14.00;;;21.50;1.00;22.90;99955.00;;;;4998247;28;20493;-74
2021/07/25 07:28:00;;;;;;;15.43;13.93;;;21.50;1.00;23.10;99946.00;;;;4997702;28;20512;-76
2021/07/25 07:30:31;;;;;;;14.77;13.37;;;21.60;1.00;23.10;99939.00;;;;4996569;28;20581;-76
2021/07/25 07:33:08;;;;;;;14.53;13.13;;;21.60;1.00;23.00;99968.00;;;;5001111;28;21973;-76
2021/07/25 07:35:37;;;;;;;15.17;13.70;;;21.60;1.00;23.00;99953.00;;;;4987817;28;20445;-76
2021/07/25 07:38:07;;;;;;;14.67;13.07;;;21.50;1.00;22.90;99972.00;;;;5014443;28;20458;-76
2021/07/25 07:40:36;;;;;;;13.13;11.93;;;21.50;1.00;23.10;99966.00;;;;5010964;28;20526;-73
2021/07/25 07:43:07;;;;;;;14.80;13.20;;;21.60;1.00;23.30;99959.00;;;;5037540;28;21361;-75
2021/07/25 07:45:39;;;;;;;12.40;11.20;;;21.80;1.00;23.30;99943.00;;;;5007615;28;20998;-76
2021/07/25 07:48:09;;;;;;;14.93;11.30;;;21.90;1.00;23.40;99953.00;;;;5002171;28;20894;-76
2021/07/25 07:50:38;;;;;;;12.23;11.03;;;22.00;1.00;23.80;99925.00;;;;5006902;28;20543;-74
2021/07/25 07:53:06;;;;;;;12.63;11.43;;;22.30;1.00;24.10;99955.00;;;;5009354;28;20450;-75
2021/07/25 07:55:35;;;;;;;12.13;10.67;;;22.70;1.00;24.30;99903.00;;;;5018213;28;20497;-74
2021/07/25 07:58:04;;;;;;;14.90;12.00;;;23.00;1.00;24.70;99952.00;;;;5011383;28;20561;-77
2021/07/25 08:00:32;;;;;;;9.97;9.07;;;23.40;1.00;24.80;99941.00;;;;5001212;28;20470;-74
2021/07/25 08:03:04;;;;;;;10.30;9.20;;;23.50;1.00;24.90;99936.00;;;;5002484;28;20445;-76
2021/07/25 08:05:35;;;;;;;8.97;8.17;;;23.70;1.00;24.80;99939.00;;;;5004050;28;20530;-75
2021/07/25 08:08:04;;;;;;;9.87;8.27;;;23.60;1.00;24.70;99943.00;;;;5002383;28;20461;-74
2021/07/25 08:10:36;;;;;;;9.33;8.50;;;23.40;1.00;24.80;99848.00;;;;4999685;28;20570;-76
2021/07/25 08:13:04;;;;;;;8.97;8.17;;;23.50;1.00;24.90;99942.00;;;;5002234;28;20461;-74
2021/07/25 08:15:34;;;;;;;10.33;9.33;;;23.60;1.00;25.10;99950.00;;;;4998411;28;20465;-76
2021/07/25 08:18:02;;;;;;;11.47;10.23;;;23.70;1.00;24.90;99954.00;;;;5004245;28;20449;-76
2021/07/25 08:20:31;;;;;;;11.40;10.43;;;23.60;1.00;25.00;99950.00;;;;5001951;28;20540;-75
2021/07/25 08:23:01;;;;;;;11.40;10.40;;;23.70;1.00;25.20;99947.00;;;;5004303;28;20458;-75
2021/07/25 08:25:29;;;;;;;10.87;9.83;;;23.80;1.00;25.40;99951.00;;;;5001379;28;20477;-75
2021/07/25 08:27:58;;;;;;;10.70;9.60;;;24.00;1.00;25.40;99930.00;;;;5009787;28;20572;-76
2021/07/25 08:30:29;;;;;;;12.17;10.57;;;24.10;1.00;25.50;99940.00;;;;5000495;28;20558;-75
2021/07/25 08:32:58;;;;;;;11.07;9.97;;;24.10;1.00;25.60;99942.00;;;;5002613;28;20544;-75
2021/07/25 08:35:26;;;;;;;11.20;10.00;;;24.10;1.00;25.80;99921.00;;;;5005520;28;20888;-76
2021/07/25 08:37:55;;;;;;;11.20;8.33;;;24.30;1.00;25.90;99931.00;;;;5004791;28;20454;-76
2021/07/25 08:40:26;;;;;;;9.10;8.20;;;24.50;1.00;26.10;99940.00;;;;4998966;28;20520;-76
2021/07/25 08:43:06;;;;;;;9.63;8.60;;;24.80;1.00;26.10;99923.00;;;;5000417;28;20466;-76
2021/07/25 08:45:36;;;;;;;9.37;8.47;;;24.90;1.00;26.20;99938.00;;;;4990575;28;20507;-76
2021/07/25 08:48:15;;;;;;;9.00;8.20;;;25.00;1.00;26.20;99956.00;;;;5003449;28;20454;-76
2021/07/25 08:50:46;;;;;;;10.53;9.47;;;24.90;1.00;26.30;99925.00;;;;5003353;28;20568;-74
2021/07/25 08:53:18;;;;;;;9.53;8.67;;;25.00;1.00;26.30;99939.00;;;;5002431;28;20450;-75
2021/07/25 08:55:48;;;;;;;11.93;10.80;;;25.10;1.00;26.10;99956.00;;;;5002797;28;20812;-74
2021/07/25 08:58:19;;;;;;;9.60;8.60;;;25.10;1.00;26.20;99945.00;;;;5003362;28;20470;-77
2021/07/25 09:00:52;;;;;;;9.50;8.47;;;25.10;1.00;26.40;99965.00;;;;5001740;28;20477;-76
2021/07/25 09:03:23;;;;;;;8.23;7.30;;;25.30;1.00;26.40;99950.00;;;;5003288;28;20465;-76
2021/07/25 09:05:55;;;;;;;8.83;7.20;;;25.40;1.00;26.50;99947.00;;;;5005412;28;20466;-75
2021/07/25 09:08:26;;;;;;;7.97;7.20;;;25.60;1.00;26.60;99958.00;;;;5012881;28;20527;-75
2021/07/25 09:11:02;;;;;;;8.43;7.67;;;25.70;1.00;26.50;99952.00;;;;5012765;28;20498;-75
2021/07/25 09:13:30;;;;;;;8.30;7.50;;;25.60;1.00;26.30;99953.00;;;;5003585;28;20453;-75
2021/07/25 09:15:59;;;;;;;8.20;7.50;;;25.30;1.00;26.20;99945.00;;;;5004452;28;20888;-77
2021/07/25 09:18:30;;;;;;;8.20;7.50;;;25.20;1.00;26.30;99954.00;;;;5003233;28;20450;-76
2021/07/25 09:20:58;;;;;;;8.20;7.30;;;25.30;1.00;26.10;99950.00;;;;5008110;28;20553;-74
2021/07/25 09:23:27;;;;;;;8.70;7.90;;;25.30;1.00;26.00;99946.00;;;;5002770;28;20877;-75
2021/07/25 09:25:58;;;;;;;8.70;7.90;;;25.40;1.00;25.60;99969.00;;;;5004392;28;20486;-76
2021/07/25 09:28:33;;;;;;;9.13;8.33;;;24.80;1.00;25.60;99945.00;;;;5008697;28;20462;-74
2021/07/25 09:31:28;;;;;;;9.20;8.30;;;25.00;1.00;25.20;99959.00;;;;5018523;28;20481;-76
2021/07/25 09:33:57;;;;;;;8.47;7.77;;;24.60;1.00;25.30;99946.00;;;;5021167;28;20454;-76
2021/07/25 09:36:25;;;;;;;10.40;8.20;;;24.50;1.00;25.30;99955.00;;;;5025912;28;20443;-75
2021/07/25 09:38:56;;;;;;;7.83;6.73;;;24.70;1.00;25.30;99920.00;;;;5007426;28;20466;-73
2021/07/25 09:41:27;;;;;;;7.43;6.73;;;24.70;1.00;25.40;99926.00;;;;5005423;28;20503;-75
2021/07/25 09:44:08;;;;;;;9.47;7.40;;;24.90;1.00;25.60;99947.00;;;;5005792;28;20488;-76
2021/07/25 09:46:52;;;;;;;9.57;7.87;;;25.10;1.00;25.70;99958.00;;;;5003597;28;20474;-75
2021/07/25 09:49:21;;;;;;;9.87;8.90;;;25.30;1.00;26.00;99958.00;;;;5009147;28;20454;-75
2021/07/25 09:51:50;;;;;;;7.20;6.50;;;25.40;1.00;26.10;99960.00;;;;5026694;28;20442;-77
2021/07/25 09:54:25;;;;;;;7.40;6.60;;;25.70;1.00;26.20;99959.00;;;;5025118;28;20885;-76
2021/07/25 09:57:12;;;;;;;6.23;5.57;;;25.80;1.00;26.20;99972.00;;;;5014442;28;20458;-76
2021/07/25 09:59:41;;;;;;;7.27;6.57;;;25.90;1.00;26.10;99972.00;;;;5002967;28;20485;-76
2021/07/25 10:02:33;;;;;;;7.07;6.37;;;25.80;1.00;26.30;99972.00;;;;5005418;28;20488;-75
2021/07/25 10:05:11;;;;;;;6.77;6.17;;;26.20;1.00;26.10;99981.00;;;;4999684;28;20458;-74
2021/07/25 10:07:40;;;;;;;7.37;6.67;;;25.80;1.00;25.90;99944.00;;;;4995792;28;20524;-75
2021/07/25 10:10:11;;;;;;;7.93;7.07;;;25.60;1.00;26.10;99969.00;;;;5008598;28;20503;-77
2021/07/25 10:12:42;;;;;;;7.17;6.47;;;25.70;1.00;26.00;99938.00;;;;5012558;28;20454;-76
2021/07/25 10:15:16;;;;;;;7.13;6.43;;;25.70;1.00;25.90;99963.00;;;;5013991;28;20468;-75
2021/07/25 10:17:47;;;;;;;8.03;6.43;;;25.60;1.00;25.80;99948.00;;;;5004870;28;20458;-75
2021/07/25 10:20:16;;;;;;;7.50;6.30;;;25.50;1.00;26.10;99951.00;;;;5002749;28;20557;-75
2021/07/25 10:22:50;;;;;;;6.47;5.87;;;25.90;1.00;26.20;99918.00;;;;5003257;28;20450;-77
2021/07/25 10:25:20;;;;;;;7.30;6.60;;;26.20;1.00;26.10;99952.00;;;;5002074;28;20441;-76
2021/07/25 10:27:53;;;;;;;7.63;6.63;;;26.00;1.00;26.20;99950.00;;;;5003264;28;20470;-75
2021/07/25 10:30:22;;;;;;;8.20;7.47;;;26.20;1.00;26.10;99947.00;;;;5003943;28;20986;-75
2021/07/25 10:32:53;;;;;;;7.73;7.03;;;26.10;1.00;26.00;99964.00;;;;5006669;28;20458;-75
2021/07/25 10:35:22;;;;;;;7.80;6.93;;;25.80;1.00;26.10;99948.00;;;;5007020;28;20496;-76
2021/07/25 10:37:51;;;;;;;6.87;6.27;;;25.90;1.00;26.30;99944.00;;;;5018694;28;20492;-77
2021/07/25 10:40:23;;;;;;;9.10;8.00;;;26.10;1.00;26.40;99945.00;;;;5020533;28;21046;-76
2021/07/25 10:42:53;;;;;;;10.30;8.63;;;26.40;1.00;26.40;99914.00;;;;5012053;28;20449;-75
2021/07/25 10:45:21;;;;;;;7.13;6.20;;;26.60;1.00;26.60;99921.00;;;;5013096;28;20643;-75
2021/07/25 10:47:51;;;;;;;8.23;6.93;;;26.70;1.00;26.60;99921.00;;;;5010593;28;20484;-74
2021/07/25 10:50:21;;;;;;;6.33;5.73;;;26.80;1.00;26.70;99932.00;;;;5005972;28;20564;-75
2021/07/25 10:53:03;;;;;;;5.93;5.33;;;27.00;1.00;26.80;99932.00;;;;5004401;28;20458;-75
2021/07/25 10:55:49;;;;;;;7.07;6.33;;;27.10;1.00;27.00;99940.00;;;;5004439;28;20460;-77
2021/07/25 10:58:21;;;;;;;6.63;5.20;;;27.10;1.00;27.00;99880.00;;;;5005039;28;20962;-76
2021/07/25 11:00:52;;;;;;;5.30;4.70;;;27.20;1.00;27.00;99923.00;;;;5002191;28;20501;-76
2021/07/25 11:03:43;;;;;;;5.70;5.20;;;27.20;1.00;27.10;99928.00;;;;5007667;28;20552;-75
2021/07/25 11:06:20;;;;;;;5.37;4.83;;;27.20;1.00;27.20;99919.00;;;;5003465;28;20488;-75